createdAt,value
2023-05-18T00:03:20.735Z,7.98
2023-05-18T00:11:44.405Z,7.72
2023-05-18T00:20:09.820Z,7.51
2023-05-18T00:28:32.730Z,7.33
2023-05-18T00:36:55.753Z,7.15
2023-05-18T00:45:19.178Z,7.05
2023-05-18T00:53:44.251Z,7.02
2023-05-18T01:02:09.847Z,6.96
2023-05-18T01:10:37.809Z,6.95
2023-05-18T01:19:14.303Z,6.93
2023-05-18T01:27:42.450Z,6.86
2023-05-18T01:36:05.969Z,6.83
2023-05-18T01:44:43.704Z,6.83
2023-05-18T01:53:14.707Z,6.79
2023-05-18T02:01:38.107Z,6.68
2023-05-18T02:10:01.256Z,6.63
2023-05-18T02:18:26.875Z,6.62
2023-05-18T02:26:50.456Z,6.56
2023-05-18T02:35:18.305Z,6.51
2023-05-18T02:43:41.559Z,6.50
2023-05-18T02:52:05.090Z,6.53
2023-05-18T03:00:30.635Z,6.51
2023-05-18T03:08:56.700Z,6.46
2023-05-18T03:17:26.557Z,6.50
2023-05-18T03:25:55.449Z,6.58
2023-05-18T03:34:19.388Z,6.62
2023-05-18T03:42:43.212Z,6.63
2023-05-18T03:51:06.658Z,6.72
2023-05-18T03:59:30.237Z,6.88
2023-05-18T04:07:53.251Z,7.01
2023-05-18T04:16:16.634Z,7.17
2023-05-18T04:24:41.456Z,7.28
2023-05-18T04:33:07.165Z,7.37
2023-05-18T04:41:30.493Z,7.46
2023-05-18T04:49:53.762Z,7.55
2023-05-18T04:58:17.097Z,7.61
2023-05-18T05:06:40.049Z,7.77
2023-05-18T05:15:03.462Z,7.89
2023-05-18T05:23:26.761Z,8.03
2023-05-18T05:31:50.293Z,8.13
2023-05-18T05:40:13.389Z,8.27
2023-05-18T05:48:39.559Z,8.50
2023-05-18T05:57:03.992Z,8.59
2023-05-18T06:05:27.257Z,8.73
2023-05-18T06:13:52.400Z,8.91
2023-05-18T06:22:15.690Z,9.11
2023-05-18T06:30:51.504Z,9.25
2023-05-18T06:39:25.587Z,9.40
2023-05-18T06:47:48.779Z,9.53
2023-05-18T06:56:13.168Z,9.63
2023-05-18T07:04:42.941Z,9.55
2023-05-18T07:13:50.340Z,9.63
2023-05-18T07:22:37.093Z,9.85
2023-05-18T07:31:01.067Z,9.87
2023-05-18T07:39:28.930Z,9.89
2023-05-18T07:47:52.161Z,10.04
2023-05-18T07:56:15.170Z,10.11
2023-05-18T08:04:38.277Z,10.23
2023-05-18T08:13:01.770Z,10.36
2023-05-18T08:21:24.836Z,10.39
2023-05-18T08:29:47.829Z,10.52
2023-05-18T08:38:11.587Z,10.65
2023-05-18T08:46:40.158Z,10.63
2023-05-18T08:55:09.475Z,10.71
2023-05-18T09:03:34.773Z,10.69
2023-05-18T09:11:58.886Z,10.76
2023-05-18T09:20:22.409Z,10.90
2023-05-18T09:28:46.714Z,11.11
2023-05-18T09:37:09.883Z,11.01
2023-05-18T09:45:32.927Z,10.89
2023-05-18T09:53:58.720Z,10.95
2023-05-18T10:02:25.333Z,11.19
2023-05-18T10:10:49.838Z,11.31
2023-05-18T10:19:13.342Z,11.38
2023-05-18T10:27:36.672Z,11.51
2023-05-18T10:36:03.482Z,11.71
2023-05-18T10:44:27.102Z,11.94
2023-05-18T10:52:51.807Z,12.17
2023-05-18T11:01:15.959Z,12.32
2023-05-18T11:09:42.922Z,12.35
2023-05-18T11:18:15.815Z,12.16
2023-05-18T11:26:41.002Z,12.12
2023-05-18T11:35:08.827Z,12.18
2023-05-18T11:43:31.951Z,12.21
2023-05-18T11:52:06.381Z,12.27
2023-05-18T12:00:31.449Z,12.15
2023-05-18T12:08:55.962Z,12.07
2023-05-18T12:17:19.220Z,12.02
2023-05-18T12:25:42.435Z,11.96
2023-05-18T12:34:05.532Z,11.94
2023-05-18T12:42:28.574Z,11.91
2023-05-18T12:50:51.686Z,11.87
2023-05-18T12:59:18.046Z,11.77
2023-05-18T13:07:45.509Z,11.72
2023-05-18T13:16:16.568Z,11.68
2023-05-18T13:24:42.868Z,11.73
2023-05-18T13:33:08.861Z,11.79
2023-05-18T13:41:31.806Z,11.91
2023-05-18T13:49:54.830Z,12.02
2023-05-18T13:58:18.229Z,12.01
2023-05-18T14:06:41.507Z,11.89
2023-05-18T14:15:05.436Z,11.90
2023-05-18T14:23:28.669Z,11.85
2023-05-18T14:31:51.612Z,11.84
2023-05-18T14:40:15.320Z,11.78
2023-05-18T14:48:38.529Z,11.71
2023-05-18T14:57:01.463Z,11.72
2023-05-18T15:05:24.397Z,11.79
2023-05-18T15:13:47.955Z,11.78
2023-05-18T15:22:10.834Z,11.73
2023-05-18T15:30:33.992Z,11.67
2023-05-18T15:38:57.239Z,11.59
2023-05-18T15:47:20.173Z,11.59
2023-05-18T15:55:43.064Z,11.60
2023-05-18T16:04:06.205Z,11.52
2023-05-18T16:12:29.120Z,11.43
2023-05-18T16:20:52.199Z,11.36
2023-05-18T16:29:15.130Z,11.37
2023-05-18T16:37:38.872Z,11.36
2023-05-18T16:46:02.427Z,11.30
2023-05-18T16:54:25.358Z,11.22
2023-05-18T17:02:48.492Z,11.21
2023-05-18T17:11:11.638Z,11.25
2023-05-18T17:19:39.319Z,11.26
2023-05-18T17:28:02.167Z,11.19
2023-05-18T17:36:25.781Z,11.14
2023-05-18T17:44:48.804Z,11.12
2023-05-18T17:53:12.002Z,11.00
2023-05-18T18:01:35.952Z,10.88
2023-05-18T18:09:59.207Z,10.80
2023-05-18T18:18:23.426Z,10.76
2023-05-18T18:26:46.633Z,10.70
2023-05-18T18:35:09.904Z,10.69
2023-05-18T18:43:35.272Z,10.69
2023-05-18T18:51:58.990Z,10.65
2023-05-18T19:00:22.543Z,10.65
2023-05-18T19:08:45.454Z,10.68
2023-05-18T19:17:08.396Z,10.67
2023-05-18T19:25:31.666Z,10.69
2023-05-18T19:33:56.177Z,10.72
2023-05-18T19:42:19.196Z,10.66
2023-05-18T19:50:42.050Z,10.58
2023-05-18T19:59:05.034Z,10.53
2023-05-18T20:07:28.088Z,10.48
2023-05-18T20:15:51.256Z,10.33
2023-05-18T20:24:14.376Z,10.14
2023-05-18T20:32:37.323Z,10.09
2023-05-18T20:41:01.642Z,9.91
2023-05-18T20:49:24.952Z,9.77
2023-05-18T20:57:50.989Z,9.81
2023-05-18T21:06:14.317Z,9.85
2023-05-18T21:14:37.733Z,9.88
2023-05-18T21:23:00.693Z,9.93
2023-05-18T21:31:23.742Z,9.93
2023-05-18T21:39:47.017Z,9.91
2023-05-18T21:48:09.906Z,9.95
2023-05-18T21:56:34.772Z,9.95
2023-05-18T22:04:57.845Z,9.93
2023-05-18T22:13:20.993Z,9.90
2023-05-18T22:21:44.219Z,9.82
2023-05-18T22:30:08.455Z,9.80
2023-05-18T22:38:31.406Z,9.82
2023-05-18T22:46:54.561Z,9.78
2023-05-18T22:55:18.013Z,9.72
2023-05-18T23:03:40.974Z,9.70
2023-05-18T23:12:04.628Z,9.64
2023-05-18T23:20:27.597Z,9.61
2023-05-18T23:28:50.495Z,9.64
2023-05-18T23:37:18.712Z,9.68
2023-05-18T23:45:41.884Z,9.64
2023-05-18T23:54:09.533Z,9.63
